Time;durP1;ratioP1;P1;durP2;ratioP2;P2;SDS_P1;SDS_P2;PMS_P1;PMS_P2;Temp;Humidity;BMP_temperature;BMP_pressure;BME280_temperature;BME280_humidity;BME280_pressure;Samples;Min_cycle;Max_cycle;Signal;HPM_P1;HPM_P2
2023/05/07 00:02:15;;;;;;;18.17;11.75;;;;;;;12.87;69.00;102078.88;7392504;19;20023;-56
2023/05/07 00:04:43;;;;;;;17.60;12.73;;;;;;;12.85;69.10;102078.09;7390298;19;20043;-55
2023/05/07 00:07:10;;;;;;;15.13;11.77;;;;;;;12.90;69.09;102076.03;7388656;19;20029;-53
2023/05/07 00:09:38;;;;;;;19.17;12.77;;;;;;;12.89;69.11;102072.50;7389648;19;20014;-55
2023/05/07 00:12:05;;;;;;;17.00;12.45;;;;;;;12.95;68.88;102073.94;7390379;19;20018;-55
2023/05/07 00:14:32;;;;;;;18.05;12.10;;;;;;;12.99;68.70;102074.59;7389754;19;20064;-53
2023/05/07 00:16:59;;;;;;;17.27;12.30;;;;;;;12.89;69.01;102068.97;7387914;19;20026;-54
2023/05/07 00:19:26;;;;;;;17.55;12.13;;;;;;;12.93;69.06;102071.38;7387763;19;20091;-55
2023/05/07 00:21:56;;;;;;;16.35;11.85;;;;;;;12.95;68.85;102067.75;7389771;19;20023;-55
2023/05/07 00:24:23;;;;;;;16.10;11.93;;;;;;;12.95;69.02;102071.25;7384888;19;20029;-48
2023/05/07 00:26:50;;;;;;;15.45;11.75;;;;;;;12.93;68.81;102059.84;7393103;19;20502;-49
2023/05/07 00:29:18;;;;;;;17.95;11.80;;;;;;;12.80;69.10;102062.44;7396888;19;20038;-52
2023/05/07 00:31:49;;;;;;;16.30;12.18;;;;;;;12.80;68.81;102057.13;7395823;19;20678;-53
2023/05/07 00:34:17;;;;;;;15.75;11.35;;;;;;;12.74;69.14;102061.94;7394666;19;20018;-51
2023/05/07 00:36:45;;;;;;;15.02;12.38;;;;;;;12.75;68.85;102059.22;7395980;19;20011;-51
2023/05/07 00:39:12;;;;;;;15.25;11.55;;;;;;;12.70;68.86;102055.97;7392968;19;20043;-51
2023/05/07 00:41:39;;;;;;;16.17;11.50;;;;;;;12.72;69.04;102061.22;7397913;19;20018;-47
2023/05/07 00:44:06;;;;;;;14.90;11.90;;;;;;;12.68;68.50;102058.72;7395529;19;20018;-48
2023/05/07 00:46:33;;;;;;;15.10;11.23;;;;;;;12.66;68.77;102065.09;7394927;19;20018;-48
2023/05/07 00:49:01;;;;;;;17.75;11.60;;;;;;;12.61;68.85;102062.72;7394582;19;20035;-53
2023/05/07 00:51:30;;;;;;;15.63;11.85;;;;;;;12.62;68.84;102059.09;7395517;19;20369;-58
2023/05/07 00:53:57;;;;;;;14.77;10.95;;;;;;;12.55;69.13;102067.53;7395288;19;20022;-51
2023/05/07 00:56:26;;;;;;;16.45;11.88;;;;;;;12.58;69.05;102067.34;7393273;19;20030;-48
2023/05/07 00:58:53;;;;;;;14.85;11.27;;;;;;;12.66;68.82;102062.44;7394632;19;20028;-53
2023/05/07 01:01:21;;;;;;;15.73;12.27;;;;;;;12.63;68.85;102065.25;7395502;19;20025;-50
2023/05/07 01:03:48;;;;;;;15.48;11.65;;;;;;;12.59;69.24;102064.63;7396428;19;20018;-47
2023/05/07 01:06:16;;;;;;;16.25;12.27;;;;;;;12.61;69.11;102070.69;7393449;19;20051;-51
2023/05/07 01:08:45;;;;;;;14.40;11.43;;;;;;;12.64;68.79;102064.34;7395363;19;20043;-48
2023/05/07 01:11:13;;;;;;;14.13;11.00;;;;;;;12.58;69.16;102065.56;7394818;19;20015;-47
2023/05/07 01:13:41;;;;;;;15.20;11.65;;;;;;;12.54;69.16;102065.84;7393511;19;20039;-51
2023/05/07 01:16:09;;;;;;;15.35;11.90;;;;;;;12.56;69.31;102055.97;7391544;19;20086;-53
2023/05/07 01:18:36;;;;;;;14.02;11.30;;;;;;;12.53;69.22;102059.69;7391390;19;20029;-51
2023/05/07 01:21:05;;;;;;;16.38;11.80;;;;;;;12.59;69.17;102071.72;7395275;19;20018;-49
2023/05/07 01:23:35;;;;;;;14.65;11.30;;;;;;;12.53;69.53;102066.78;7390680;19;20022;-49
2023/05/07 01:26:02;;;;;;;16.58;11.77;;;;;;;12.50;69.55;102064.31;7393097;19;20037;-49
2023/05/07 01:28:29;;;;;;;15.60;12.10;;;;;;;12.49;69.54;102067.94;7393387;19;20365;-47
2023/05/07 01:31:02;;;;;;;15.95;13.05;;;;;;;12.51;69.48;102066.03;7395415;19;20019;-48
2023/05/07 01:33:33;;;;;;;15.77;11.70;;;;;;;12.52;69.32;102070.41;7396141;19;20010;-50
2023/05/07 01:36:03;;;;;;;15.30;12.30;;;;;;;12.50;68.96;102072.28;7390903;19;20482;-49
2023/05/07 01:38:31;;;;;;;15.60;12.13;;;;;;;12.42;69.33;102068.28;7390044;19;20043;-53
2023/05/07 01:40:58;;;;;;;15.75;11.68;;;;;;;12.37;68.85;102064.22;7395157;19;20483;-50
2023/05/07 01:43:25;;;;;;;14.73;11.38;;;;;;;12.29;69.00;102066.47;7393462;19;20015;-48
2023/05/07 01:45:53;;;;;;;16.85;11.93;;;;;;;12.33;68.83;102065.34;7392805;19;20034;-52
2023/05/07 01:48:21;;;;;;;14.95;11.43;;;;;;;12.27;69.30;102065.72;7395357;19;20130;-52
2023/05/07 01:50:48;;;;;;;14.65;10.98;;;;;;;12.26;69.20;102064.84;7393508;19;20118;-52
2023/05/07 01:53:15;;;;;;;14.48;10.98;;;;;;;12.28;69.05;102065.59;7393177;19;20025;-52
2023/05/07 01:55:43;;;;;;;15.60;11.27;;;;;;;12.21;69.39;102074.91;7390844;19;20114;-53
2023/05/07 01:58:10;;;;;;;14.82;11.27;;;;;;;12.20;69.31;102073.19;7394909;19;20020;-52
2023/05/07 02:00:37;;;;;;;15.48;11.00;;;;;;;12.21;69.31;102064.28;7393877;19;20019;-53
2023/05/07 02:03:05;;;;;;;14.70;10.82;;;;;;;12.22;69.30;102070.44;7394447;19;20018;-53
2023/05/07 02:05:33;;;;;;;16.30;11.48;;;;;;;12.13;69.40;102075.38;7390879;19;20028;-52
2023/05/07 02:08:00;;;;;;;14.30;10.38;;;;;;;12.13;69.47;102069.16;7394463;19;20150;-52
2023/05/07 02:10:27;;;;;;;16.15;11.32;;;;;;;12.17;69.31;102071.56;7393477;19;20114;-52
2023/05/07 02:12:54;;;;;;;14.98;11.50;;;;;;;12.12;69.31;102072.78;7394241;19;20524;-51
2023/05/07 02:15:21;;;;;;;15.02;11.00;;;;;;;12.07;69.30;102070.41;7392675;19;20018;-53
2023/05/07 02:18:09;;;;;;;15.20;11.02;;;;;;;12.15;69.24;102076.09;7392329;19;20018;-53
2023/05/07 02:20:36;;;;;;;16.15;10.93;;;;;;;12.11;69.06;102071.94;7389086;19;20500;-51
2023/05/07 02:23:03;;;;;;;15.73;10.95;;;;;;;12.06;69.19;102075.81;7392116;19;20487;-52
2023/05/07 02:25:30;;;;;;;15.55;11.10;;;;;;;12.10;69.39;102072.88;7391807;19;20082;-52
2023/05/07 02:27:57;;;;;;;15.55;10.38;;;;;;;12.19;68.64;102072.31;7392380;19;20491;-51
2023/05/07 02:30:25;;;;;;;14.45;10.35;;;;;;;12.13;69.08;102075.38;7391027;19;20023;-51
2023/05/07 02:32:52;;;;;;;15.18;10.35;;;;;;;12.03;69.27;102076.00;7394016;19;20025;-53
2023/05/07 02:35:19;;;;;;;15.15;10.52;;;;;;;12.05;69.42;102068.78;7391173;19;20048;-51
2023/05/07 02:37:47;;;;;;;14.55;10.77;;;;;;;12.01;69.58;102065.44;7393685;19;20023;-49
2023/05/07 02:40:14;;;;;;;16.15;11.65;;;;;;;12.09;69.35;102072.94;7391143;19;20094;-52
2023/05/07 02:42:41;;;;;;;16.42;12.00;;;;;;;12.01;69.54;102070.75;7393277;19;20035;-49
2023/05/07 02:45:09;;;;;;;15.95;11.50;;;;;;;12.01;69.28;102070.75;7389969;19;20014;-50
2023/05/07 02:47:36;;;;;;;15.98;11.40;;;;;;;12.01;69.46;102080.53;7393557;19;20039;-49
2023/05/07 02:50:04;;;;;;;17.00;11.82;;;;;;;11.98;69.44;102081.56;7391259;19;20018;-51
2023/05/07 02:52:31;;;;;;;16.83;11.38;;;;;;;11.96;69.78;102096.72;7393274;19;20037;-54
2023/05/07 02:54:58;;;;;;;15.57;11.65;;;;;;;11.90;69.66;102099.72;7391126;19;20022;-53
2023/05/07 02:57:25;;;;;;;15.80;11.70;;;;;;;11.99;69.75;102095.69;7393043;19;20030;-53
2023/05/07 02:59:52;;;;;;;16.58;11.68;;;;;;;12.05;69.62;102087.34;7390432;19;20019;-53
2023/05/07 03:02:20;;;;;;;17.85;12.13;;;;;;;11.97;69.83;102090.47;7391247;19;20019;-53
2023/05/07 03:04:47;;;;;;;15.73;11.43;;;;;;;12.01;69.70;102093.78;7389847;19;20022;-53
2023/05/07 03:07:14;;;;;;;15.40;11.45;;;;;;;12.01;69.38;102094.66;7390554;19;20019;-51
2023/05/07 03:09:41;;;;;;;16.40;12.07;;;;;;;12.00;69.51;102089.44;7391752;19;20019;-52
2023/05/07 03:12:08;;;;;;;18.23;12.15;;;;;;;11.96;69.46;102094.06;7392483;19;20018;-53
2023/05/07 03:14:35;;;;;;;14.88;10.55;;;;;;;11.86;69.88;102093.72;7389815;19;20061;-53
2023/05/07 03:17:03;;;;;;;15.40;11.20;;;;;;;11.94;69.78;102095.94;7391862;19;20038;-50
2023/05/07 03:19:30;;;;;;;16.80;11.88;;;;;;;12.00;69.67;102094.75;7389016;19;20018;-52
2023/05/07 03:21:57;;;;;;;15.38;11.43;;;;;;;11.95;69.86;102093.22;7390279;19;20014;-52
2023/05/07 03:24:24;;;;;;;18.10;12.20;;;;;;;11.91;69.77;102094.34;7391397;19;20053;-54
2023/05/07 03:26:52;;;;;;;15.50;11.23;;;;;;;11.90;69.65;102092.59;7391846;19;20030;-50
2023/05/07 03:29:19;;;;;;;15.65;11.63;;;;;;;11.90;69.64;102091.75;7389909;19;20063;-52
2023/05/07 03:31:46;;;;;;;16.52;11.48;;;;;;;11.92;69.46;102089.88;7391382;19;20483;-48
2023/05/07 03:34:13;;;;;;;15.68;11.00;;;;;;;11.91;69.73;102086.38;7391553;19;20044;-49
2023/05/07 03:36:40;;;;;;;16.38;11.40;;;;;;;11.94;69.44;102086.19;7389589;19;20089;-51
2023/05/07 03:39:08;;;;;;;17.13;11.77;;;;;;;11.90;69.68;102087.28;7388506;19;20101;-51
2023/05/07 03:41:35;;;;;;;17.45;11.77;;;;;;;11.91;69.79;102093.50;7389892;19;20019;-49
2023/05/07 03:44:02;;;;;;;16.27;11.70;;;;;;;11.90;69.69;102086.44;7389996;19;20021;-51
2023/05/07 03:46:30;;;;;;;15.73;11.60;;;;;;;11.97;69.51;102087.81;7387727;19;20033;-49
2023/05/07 03:48:57;;;;;;;16.67;10.45;;;;;;;11.95;69.43;102087.91;7391019;19;20510;-48
2023/05/07 03:51:25;;;;;;;16.02;11.25;;;;;;;11.97;69.56;102084.28;7389134;19;20043;-53
2023/05/07 03:53:56;;;;;;;15.02;10.77;;;;;;;12.01;69.49;102091.13;7388898;19;20015;-54
2023/05/07 03:56:26;;;;;;;15.48;10.93;;;;;;;11.96;69.72;102083.44;7387980;19;20010;-51
2023/05/07 03:58:54;;;;;;;16.38;12.18;;;;;;;11.93;69.57;102088.94;7389735;19;20035;-53
2023/05/07 04:01:21;;;;;;;14.93;11.20;;;;;;;11.85;69.75;102084.06;7386497;19;20528;-53
2023/05/07 04:03:48;;;;;;;13.45;9.88;;;;;;;11.85;69.87;102084.06;7391043;19;20014;-50
2023/05/07 04:06:17;;;;;;;16.33;10.82;;;;;;;11.88;69.92;102086.53;7386267;19;20025;-51
2023/05/07 04:08:44;;;;;;;14.50;10.25;;;;;;;11.97;69.54;102090.47;7388405;19;20039;-52
2023/05/07 04:11:11;;;;;;;14.25;10.38;;;;;;;11.98;69.63;102094.84;7389713;19;20018;-53
2023/05/07 04:13:38;;;;;;;15.30;11.45;;;;;;;11.94;69.74;102095.94;7390193;19;20018;-51
2023/05/07 04:16:06;;;;;;;16.23;11.70;;;;;;;11.91;69.58;102099.66;7386263;19;20025;-50
2023/05/07 04:18:33;;;;;;;15.57;11.15;;;;;;;11.90;70.03;102097.06;7387346;19;20019;-50
2023/05/07 04:21:00;;;;;;;14.88;10.95;;;;;;;12.01;69.71;102097.28;7386439;19;20039;-52
2023/05/07 04:23:27;;;;;;;14.40;10.52;;;;;;;12.02;69.69;102106.13;7390568;19;20358;-55
2023/05/07 04:25:55;;;;;;;14.50;10.60;;;;;;;11.99;69.62;102111.63;7388046;19;20130;-54
2023/05/07 04:28:25;;;;;;;14.32;10.63;;;;;;;11.96;69.71;102102.03;7388401;19;20018;-52
2023/05/07 04:30:52;;;;;;;13.63;9.63;;;;;;;11.97;69.66;102111.69;7390069;19;20043;-55
2023/05/07 04:33:19;;;;;;;13.45;10.23;;;;;;;12.05;69.65;102106.78;7388598;19;20022;-54
2023/05/07 04:35:46;;;;;;;15.73;10.98;;;;;;;12.07;69.40;102106.72;7387198;19;20041;-53
2023/05/07 04:38:13;;;;;;;14.35;10.48;;;;;;;12.11;69.35;102100.28;7389585;19;20015;-53
2023/05/07 04:40:41;;;;;;;16.63;10.90;;;;;;;12.10;69.37;102098.59;7387556;19;20034;-52
2023/05/07 04:43:09;;;;;;;17.52;11.27;;;;;;;11.98;69.68;102099.28;7390326;19;20022;-47
2023/05/07 04:45:36;;;;;;;14.55;10.23;;;;;;;11.98;69.52;102104.59;7386520;19;20015;-49
2023/05/07 04:48:04;;;;;;;15.07;11.00;;;;;;;11.97;69.63;102098.41;7383243;19;20337;-50
2023/05/07 04:50:31;;;;;;;19.02;12.00;;;;;;;11.98;69.69;102099.28;7386798;19;20073;-50
2023/05/07 04:52:58;;;;;;;14.48;10.52;;;;;;;12.03;69.31;102107.84;7388875;19;20025;-50
2023/05/07 04:55:25;;;;;;;14.13;10.07;;;;;;;12.08;69.24;102106.63;7388027;19;20015;-52
2023/05/07 04:57:52;;;;;;;25.55;10.27;;;;;;;12.04;69.44;102102.44;7388783;19;20033;-50
2023/05/07 05:00:19;;;;;;;13.05;9.25;;;;;;;12.03;69.51;102108.69;7387757;19;20019;-49
2023/05/07 05:02:47;;;;;;;14.43;9.15;;;;;;;12.07;69.32;102106.72;7389178;19;20043;-49
2023/05/07 05:05:14;;;;;;;14.43;9.15;;;;;;;12.06;69.20;102116.50;7387583;19;20018;-47
2023/05/07 05:07:41;;;;;;;12.93;9.40;;;;;;;12.06;69.37;102121.81;7388324;19;20022;-49
2023/05/07 05:10:08;;;;;;;14.20;9.32;;;;;;;12.13;69.23;102128.47;7386736;19;20015;-48
2023/05/07 05:12:36;;;;;;;13.27;8.85;;;;;;;12.13;69.32;102122.28;7390817;19;20019;-50
2023/05/07 05:15:03;;;;;;;12.75;8.75;;;;;;;12.20;68.84;102115.66;7394849;19;20018;-49
2023/05/07 05:17:30;;;;;;;12.98;9.48;;;;;;;12.22;69.02;102118.25;7396123;19;20018;-49
2023/05/07 05:19:57;;;;;;;12.20;8.63;;;;;;;12.24;68.95;102122.50;7392830;19;20018;-48
2023/05/07 05:22:25;;;;;;;12.70;8.70;;;;;;;12.14;68.97;102124.88;7396023;19;20483;-48
2023/05/07 05:24:52;;;;;;;13.13;9.18;;;;;;;12.19;68.64;102125.44;7392587;19;20018;-53
2023/05/07 05:27:19;;;;;;;12.95;9.30;;;;;;;12.22;68.48;102126.22;7395822;19;20479;-49
2023/05/07 05:29:46;;;;;;;12.13;8.85;;;;;;;12.16;68.70;102124.75;7394086;19;20018;-48
2023/05/07 05:32:14;;;;;;;14.85;8.77;;;;;;;12.16;68.58;102124.75;7396661;19;20451;-48
2023/05/07 05:34:41;;;;;;;12.68;8.60;;;;;;;12.15;68.80;102128.38;7393985;19;20015;-47
2023/05/07 05:37:08;;;;;;;13.15;9.45;;;;;;;12.18;68.49;102128.19;7394366;19;20023;-48
2023/05/07 05:39:36;;;;;;;11.07;8.52;;;;;;;12.18;68.66;102133.50;7394087;19;20039;-51
2023/05/07 05:42:03;;;;;;;13.18;9.05;;;;;;;12.15;68.78;102129.22;7395512;19;20034;-53
2023/05/07 05:44:30;;;;;;;11.48;8.13;;;;;;;12.24;68.38;102133.13;7392817;19;20342;-52
2023/05/07 05:46:59;;;;;;;10.98;7.95;;;;;;;12.29;68.14;102147.03;7394526;19;20018;-50
2023/05/07 05:49:26;;;;;;;12.13;7.47;;;;;;;12.26;68.16;102149.00;7394010;19;20021;-46
2023/05/07 05:51:53;;;;;;;10.85;7.63;;;;;;;12.22;68.21;102143.00;7393261;19;20492;-49
2023/05/07 05:54:20;;;;;;;11.48;7.53;;;;;;;12.28;67.93;102144.44;7394457;19;20015;-50
2023/05/07 05:56:47;;;;;;;12.52;7.90;;;;;;;12.35;67.73;102138.66;7394458;19;20074;-53
2023/05/07 05:59:14;;;;;;;12.45;8.05;;;;;;;12.35;67.65;102151.09;7394126;19;20031;-50
2023/05/07 06:01:41;;;;;;;12.02;7.95;;;;;;;12.35;67.43;102153.75;7392554;19;20038;-52
2023/05/07 06:04:09;;;;;;;11.35;8.10;;;;;;;12.30;67.44;102155.84;7394466;19;20022;-53
2023/05/07 06:06:36;;;;;;;10.23;7.40;;;;;;;12.33;67.18;102140.56;7394490;19;20091;-53
2023/05/07 06:09:03;;;;;;;10.52;7.28;;;;;;;12.29;67.46;102149.69;7393863;19;20044;-49
2023/05/07 06:11:31;;;;;;;11.23;7.85;;;;;;;12.32;67.12;102146.81;7392220;19;20522;-49
2023/05/07 06:13:58;;;;;;;11.43;7.10;;;;;;;12.27;66.80;102153.34;7394477;19;20018;-51
2023/05/07 06:16:25;;;;;;;10.43;7.28;;;;;;;12.29;67.15;102160.31;7390723;19;20022;-52
2023/05/07 06:18:52;;;;;;;10.23;6.72;;;;;;;12.34;67.12;102154.72;7392238;19;20035;-51
2023/05/07 06:21:20;;;;;;;10.35;6.85;;;;;;;12.28;67.17;102155.91;7392706;19;20017;-48
2023/05/07 06:23:47;;;;;;;8.85;6.22;;;;;;;12.30;66.57;102158.50;7390904;19;20015;-52
2023/05/07 06:26:14;;;;;;;10.00;6.38;;;;;;;12.33;66.17;102159.19;7391205;19;20014;-50
2023/05/07 06:28:41;;;;;;;9.43;6.13;;;;;;;12.30;66.17;102162.00;7391721;19;20051;-51
2023/05/07 06:31:15;;;;;;;10.55;6.28;;;;;;;12.29;66.23;102156.78;7392862;19;20023;-51
2023/05/07 06:33:44;;;;;;;10.88;6.53;;;;;;;12.32;66.12;102156.59;7394177;19;20019;-53
2023/05/07 06:36:12;;;;;;;8.98;6.10;;;;;;;12.34;66.09;102157.38;7389282;19;20019;-51
2023/05/07 06:38:39;;;;;;;9.00;6.07;;;;;;;12.31;65.91;102154.88;7391239;19;20033;-50
2023/05/07 06:41:07;;;;;;;8.75;5.80;;;;;;;12.31;65.91;102158.41;7390727;19;20029;-53
2023/05/07 06:43:34;;;;;;;8.30;5.60;;;;;;;12.30;65.93;102158.50;7393239;19;20029;-52
2023/05/07 06:46:01;;;;;;;8.50;5.78;;;;;;;12.32;65.84;102148.63;7390839;19;20026;-52
2023/05/07 06:48:28;;;;;;;8.65;5.65;;;;;;;12.31;65.70;102157.53;7392250;19;20032;-52
2023/05/07 06:50:57;;;;;;;10.07;5.93;;;;;;;12.31;65.68;102153.09;7392817;19;20488;-50
2023/05/07 06:53:25;;;;;;;7.85;5.47;;;;;;;12.32;65.52;102161.91;7391542;19;20022;-51
2023/05/07 06:55:52;;;;;;;8.93;5.70;;;;;;;12.38;65.41;102149.13;7390718;19;20026;-49
2023/05/07 06:58:20;;;;;;;8.20;6.05;;;;;;;12.41;65.07;102146.28;7393488;19;20018;-52
2023/05/07 07:00:47;;;;;;;8.88;5.90;;;;;;;12.46;65.10;102146.00;7390623;19;20019;-51
2023/05/07 07:03:14;;;;;;;9.07;6.25;;;;;;;12.59;64.96;102151.44;7390767;19;20086;-52
2023/05/07 07:05:41;;;;;;;9.05;5.82;;;;;;;12.66;64.77;102153.63;7391007;19;20037;-53
2023/05/07 07:08:10;;;;;;;8.82;5.47;;;;;;;12.70;64.73;102156.97;7392314;19;20029;-50
2023/05/07 07:10:37;;;;;;;9.02;6.05;;;;;;;12.71;64.95;102148.06;7391454;19;20491;-52
2023/05/07 07:13:04;;;;;;;9.35;5.65;;;;;;;12.84;64.36;102156.16;7390340;19;20026;-53
2023/05/07 07:15:31;;;;;;;8.60;5.70;;;;;;;12.93;63.93;102164.44;7388894;19;20547;-52
2023/05/07 07:17:58;;;;;;;8.40;5.10;;;;;;;12.98;63.62;102169.47;7392539;19;20082;-50
2023/05/07 07:20:26;;;;;;;7.60;5.00;;;;;;;13.00;63.65;102164.03;7388400;19;20018;-46
2023/05/07 07:22:53;;;;;;;8.70;5.60;;;;;;;13.00;63.35;102167.56;7391935;19;20019;-48
2023/05/07 07:25:20;;;;;;;9.00;5.60;;;;;;;12.97;63.44;102181.03;7389781;19;20018;-50
2023/05/07 07:27:47;;;;;;;7.53;5.45;;;;;;;13.05;63.37;102177.91;7392235;19;20020;-52
2023/05/07 07:30:14;;;;;;;8.50;5.80;;;;;;;12.99;63.51;102180.97;7390436;19;20018;-52
2023/05/07 07:32:42;;;;;;;14.48;8.82;;;;;;;13.03;63.57;102174.50;7392011;19;20019;-52
2023/05/07 07:35:10;;;;;;;12.63;8.63;;;;;;;13.02;63.88;102180.78;7385192;19;20046;-52
2023/05/07 07:37:37;;;;;;;12.38;8.80;;;;;;;13.01;63.96;102179.03;7391361;19;20026;-51
2023/05/07 07:40:05;;;;;;;9.35;6.53;;;;;;;12.97;63.84;102190.81;7390421;19;20018;-52
2023/05/07 07:42:32;;;;;;;9.57;6.70;;;;;;;13.00;63.77;102185.31;7391671;19;20038;-51
2023/05/07 07:45:01;;;;;;;9.85;6.25;;;;;;;13.02;63.51;102181.63;7389542;19;20015;-48
2023/05/07 07:47:28;;;;;;;9.32;6.30;;;;;;;13.03;63.59;102180.66;7390081;19;20078;-52
2023/05/07 07:49:55;;;;;;;9.07;6.30;;;;;;;13.05;63.16;102183.22;7388371;19;20361;-51
2023/05/07 07:52:22;;;;;;;8.07;5.72;;;;;;;13.07;63.26;102176.03;7391205;19;20022;-53
2023/05/07 07:54:49;;;;;;;11.55;9.95;;;;;;;13.14;63.23;102183.53;7389771;19;20055;-53
2023/05/07 07:57:16;;;;;;;9.02;6.60;;;;;;;13.22;62.93;102174.22;7390336;19;20018;-51
2023/05/07 07:59:43;;;;;;;17.95;6.38;;;;;;;13.23;62.73;102174.16;7388787;19;20018;-50
2023/05/07 08:02:10;;;;;;;9.57;5.90;;;;;;;13.22;63.05;102176.88;7388666;19;20498;-48
2023/05/07 08:04:37;;;;;;;8.85;5.93;;;;;;;13.16;63.06;102172.78;7387879;19;20089;-49
2023/05/07 08:07:05;;;;;;;7.85;5.55;;;;;;;13.18;62.92;102176.22;7388918;19;20018;-52
2023/05/07 08:09:32;;;;;;;7.95;5.25;;;;;;;13.32;62.58;102175.41;7387916;19;20498;-53
2023/05/07 08:12:01;;;;;;;8.38;5.55;;;;;;;13.44;62.54;102187.09;7390580;19;20010;-49
2023/05/07 08:14:28;;;;;;;7.80;5.28;;;;;;;13.50;62.45;102187.53;7388376;19;20027;-52
2023/05/07 08:16:55;;;;;;;7.55;5.32;;;;;;;13.53;61.94;102187.34;7387347;19;20035;-48
2023/05/07 08:19:22;;;;;;;8.30;5.72;;;;;;;13.56;62.01;102191.63;7389472;19;20352;-50
2023/05/07 08:21:50;;;;;;;8.43;5.53;;;;;;;13.62;61.90;102197.44;7386767;19;20090;-52
2023/05/07 08:24:17;;;;;;;8.07;5.78;;;;;;;13.69;62.05;102192.53;7389918;19;20023;-52
2023/05/07 08:26:45;;;;;;;7.78;5.07;;;;;;;13.71;61.90;102200.44;7386287;19;20414;-52
2023/05/07 08:29:13;;;;;;;9.73;5.90;;;;;;;13.74;61.23;102200.25;7387534;19;20029;-53
2023/05/07 08:31:40;;;;;;;7.28;5.30;;;;;;;13.70;61.44;102199.59;7389907;19;20018;-53
2023/05/07 08:34:08;;;;;;;8.65;5.18;;;;;;;13.78;61.16;102201.78;7389426;19;20015;-51
2023/05/07 08:36:36;;;;;;;7.68;5.22;;;;;;;13.79;61.67;102201.66;7388344;19;20015;-53
2023/05/07 08:39:03;;;;;;;6.95;4.80;;;;;;;13.74;61.58;102202.94;7388895;19;20011;-51
2023/05/07 08:41:30;;;;;;;7.82;5.32;;;;;;;13.72;61.55;102195.00;7388630;19;20019;-54
2023/05/07 08:43:59;;;;;;;7.63;4.90;;;;;;;13.64;61.70;102207.97;7387140;19;20048;-51
2023/05/07 08:46:31;;;;;;;8.55;5.05;;;;;;;13.73;61.65;102204.69;7383070;19;20026;-53
2023/05/07 08:48:58;;;;;;;7.53;4.90;;;;;;;13.65;61.61;102199.88;7395707;19;20042;-53
2023/05/07 08:51:26;;;;;;;8.98;5.53;;;;;;;13.70;61.65;102202.25;7397370;19;20021;-52
2023/05/07 08:53:54;;;;;;;9.05;5.18;;;;;;;13.67;61.54;102206.94;7396763;19;20333;-52
2023/05/07 08:56:21;;;;;;;7.85;4.82;;;;;;;13.75;61.92;102209.94;7394815;19;20018;-53
2023/05/07 08:58:51;;;;;;;7.18;4.85;;;;;;;13.80;61.81;102199.84;7392336;19;20031;-52
2023/05/07 09:01:18;;;;;;;9.27;5.03;;;;;;;13.87;61.40;102198.50;7393640;19;20021;-52
2023/05/07 09:03:46;;;;;;;7.60;5.10;;;;;;;14.00;60.89;102210.06;7396422;19;20035;-49
2023/05/07 09:06:14;;;;;;;8.10;5.00;;;;;;;14.03;61.04;102199.22;7394567;19;20039;-51
2023/05/07 09:08:49;;;;;;;8.38;5.40;;;;;;;14.12;60.87;102206.63;7395434;19;20038;-53
2023/05/07 09:11:16;;;;;;;8.60;6.00;;;;;;;14.15;61.03;102197.56;7396452;19;20084;-53
2023/05/07 09:13:43;;;;;;;19.67;7.90;;;;;;;14.22;60.88;102196.19;7393781;19;20019;-52
2023/05/07 09:16:12;;;;;;;9.30;6.70;;;;;;;14.32;60.48;102199.13;7393974;19;20073;-53
2023/05/07 09:18:43;;;;;;;8.80;5.80;;;;;;;14.37;60.39;102200.50;7395310;19;20022;-52
2023/05/07 09:21:14;;;;;;;8.15;4.80;;;;;;;14.39;60.46;102203.09;7395130;19;20019;-52
2023/05/07 09:23:41;;;;;;;9.38;5.47;;;;;;;14.35;60.30;102206.94;7395645;19;20035;-51
2023/05/07 09:26:11;;;;;;;7.60;5.13;;;;;;;14.39;60.34;102214.59;7393796;19;20014;-52
2023/05/07 09:28:41;;;;;;;8.13;5.43;;;;;;;14.37;60.16;102207.66;7394648;19;20082;-51
2023/05/07 09:31:09;;;;;;;7.45;4.97;;;;;;;14.40;60.47;102215.47;7393423;19;20024;-49
2023/05/07 09:33:37;;;;;;;9.20;5.03;;;;;;;14.39;59.95;102211.94;7395237;19;20015;-51
2023/05/07 09:36:09;;;;;;;9.07;5.80;;;;;;;14.42;60.27;102210.00;7393197;19;20051;-52
2023/05/07 09:38:37;;;;;;;8.95;5.35;;;;;;;14.52;60.02;102208.47;7394796;19;20014;-51
2023/05/07 09:41:12;;;;;;;8.63;5.55;;;;;;;14.65;59.65;102211.16;7392392;19;20018;-51
2023/05/07 09:43:40;;;;;;;9.70;5.82;;;;;;;14.72;59.70;102212.47;7395365;19;20011;-52
2023/05/07 09:46:20;;;;;;;9.77;5.85;;;;;;;14.79;59.81;102203.94;7393109;19;20531;-53
2023/05/07 09:48:48;;;;;;;12.00;7.35;;;;;;;14.92;59.57;102208.44;7394111;19;20019;-53
2023/05/07 09:51:51;;;;;;;9.82;6.80;;;;;;;14.98;59.17;102203.53;7394732;19;20062;-54
2023/05/07 09:54:19;;;;;;;8.43;5.72;;;;;;;14.97;59.68;102203.66;7390581;19;20014;-52
2023/05/07 09:56:48;;;;;;;9.73;6.25;;;;;;;14.96;59.33;102196.63;7391503;19;20078;-52
2023/05/07 09:59:16;;;;;;;12.27;7.53;;;;;;;14.95;59.44;102193.06;7391551;19;20018;-52
2023/05/07 10:01:44;;;;;;;10.50;7.22;;;;;;;14.92;59.28;102201.31;7393208;19;20019;-51
2023/05/07 10:04:12;;;;;;;10.07;6.32;;;;;;;14.86;59.14;102194.56;7393069;19;20026;-51
2023/05/07 10:06:40;;;;;;;11.38;6.28;;;;;;;14.87;58.91;102198.94;7392153;19;20029;-54
2023/05/07 10:09:08;;;;;;;8.30;6.03;;;;;;;14.93;58.81;102195.00;7393808;19;20033;-52
2023/05/07 10:11:36;;;;;;;9.02;5.88;;;;;;;14.98;58.75;102186.69;7394138;19;20022;-51
2023/05/07 10:14:05;;;;;;;9.20;6.05;;;;;;;15.05;58.85;102191.47;7394015;19;20056;-52
2023/05/07 10:16:36;;;;;;;9.82;6.28;;;;;;;15.15;58.75;102193.50;7392318;19;20032;-52
2023/05/07 10:19:04;;;;;;;9.73;6.18;;;;;;;15.14;58.46;102200.66;7391201;19;20036;-52
2023/05/07 10:21:36;;;;;;;10.32;6.68;;;;;;;15.13;58.69;102206.09;7393359;19;20043;-53
2023/05/07 10:24:20;;;;;;;10.20;7.00;;;;;;;15.10;58.60;102204.50;7393106;19;20070;-53
2023/05/07 10:26:50;;;;;;;9.43;5.85;;;;;;;15.01;59.00;102199.81;7392136;19;20347;-52
2023/05/07 10:29:56;;;;;;;9.77;6.35;;;;;;;15.15;58.29;102199.72;7392561;19;20023;-53
2023/05/07 10:32:30;;;;;;;9.52;6.65;;;;;;;15.03;59.09;102200.53;7392899;19;20519;-52
2023/05/07 10:35:02;;;;;;;9.52;6.32;;;;;;;15.13;58.88;102201.63;7393134;19;20010;-53
2023/05/07 10:37:29;;;;;;;9.98;6.45;;;;;;;15.06;59.59;102205.69;7392261;19;20022;-53
2023/05/07 10:39:57;;;;;;;10.30;6.93;;;;;;;15.24;58.66;102211.56;7391820;19;20018;-53
2023/05/07 10:42:24;;;;;;;10.25;6.90;;;;;;;15.26;58.50;102217.63;7390615;19;20419;-54
2023/05/07 10:44:51;;;;;;;10.23;7.50;;;;;;;15.23;57.93;102216.03;7392074;19;20018;-51
2023/05/07 10:47:18;;;;;;;10.52;7.22;;;;;;;15.33;58.04;102211.75;7388895;19;20032;-50
2023/05/07 10:49:45;;;;;;;11.32;7.35;;;;;;;15.41;57.89;102213.88;7391548;19;20018;-50
2023/05/07 10:52:14;;;;;;;11.70;7.15;;;;;;;15.38;57.82;102221.25;7392832;19;20010;-50
2023/05/07 10:54:45;;;;;;;10.07;6.80;;;;;;;15.50;57.35;102207.06;7392257;19;20018;-51
2023/05/07 10:57:30;;;;;;;10.80;7.15;;;;;;;15.53;56.95;102214.81;7391884;19;20022;-50
2023/05/07 10:59:58;;;;;;;10.52;7.10;;;;;;;15.53;57.27;102210.34;7391356;19;20015;-48
2023/05/07 11:03:14;;;;;;;10.57;6.93;;;;;;;15.68;56.34;102204.88;7391287;19;20127;-51
2023/05/07 11:05:42;;;;;;;10.95;6.95;;;;;;;15.63;57.36;102210.53;7390044;19;20138;-53
2023/05/07 11:08:09;;;;;;;9.45;6.60;;;;;;;15.57;57.17;102211.00;7392336;19;20571;-51
2023/05/07 11:10:53;;;;;;;9.07;6.68;;;;;;;15.58;57.27;102202.84;7390048;19;20014;-49
2023/05/07 11:13:39;;;;;;;;;;;;;;;15.41;57.37;102208.53;7392959;19;20038;-52
2023/05/07 11:16:23;;;;;;;11.32;7.15;;;;;;;15.43;58.30;102203.09;7390588;19;19922;-49
2023/05/07 11:18:52;;;;;;;13.90;8.68;;;;;;;15.59;57.77;102196.53;7389435;19;20377;-49
2023/05/07 11:21:33;;;;;;;11.85;7.20;;;;;;;15.78;57.20;102197.94;7391677;19;20019;-47
2023/05/07 11:24:01;;;;;;;10.68;7.65;;;;;;;15.91;57.18;102197.88;7391620;19;20043;-51